Latest Weather Observations for Coffs Harbour Airport

IDN60801

Issued at 10:02 pm EST Thursday 22 June 2017 (issued every 30 minutes, with the page automatically refreshed every 10 minutes)

About weather observations | Map of weather stations | Latest weather observations for NSW | Other Formats
Station Details ID: 059151 Name: COFFS HARBOUR AIRPORT Lat: -30.32 Lon: 153.12 Height: 3.5 m
Data from the previous 72 hours. | See also: Recent months at Coffs Harbour Airport
Date/Time
EST
Temp
°C
App
Temp
°C
Dew
Point
°C
Rel
Hum
%
Delta-T
°C
Wind Press
QNH
hPa
Press
MSL
hPa
Rain since
9am
mm
Dir  Spd
km/h
Gust
km/h
Spd
kts
Gust
kts
22/10:00pm 11.8 11.4 9.9 88 1.0 WSW 2 7 1 4 1024.2 1024.2 -
22/09:30pm 13.7 13.5 11.8 88 1.0 WSW 4 7 2 4 1024.6 1024.6 -
22/09:00pm 14.1 13.0 11.8 86 1.2 WSW 9 13 5 7 1024.7 1024.7 0.0
22/08:30pm 14.0 12.5 12.0 88 1.1 W 11 15 6 8 1024.9 1024.9 -
22/08:00pm 14.0 13.4 12.2 89 1.0 SW 7 9 4 5 1025.0 1025.0 -
22/07:30pm 13.3 13.5 11.7 90 0.9 WSW 2 6 1 3 1024.9 1024.9 -
22/07:00pm 13.6 14.1 11.7 88 1.0 CALM 0 0 0 0 1024.7 1024.7 -
22/06:30pm 14.4 14.0 12.3 87 1.1 SW 6 9 3 5 1024.3 1024.3 -
22/06:00pm 15.0 14.3 12.0 82 1.6 WSW 7 11 4 6 1024.1 1024.1 -
22/05:30pm 16.4 15.1 12.6 78 2.1 SW 11 17 6 9 1024.0 1024.0 -
22/05:00pm 17.7 14.9 12.6 72 2.8 S 19 26 10 14 1024.0 1024.0 -
22/04:30pm 18.7 15.9 12.7 68 3.4 S 19 28 10 15 1023.7 1023.7 -
22/04:00pm 19.3 16.2 12.3 64 3.9 S 20 26 11 14 1023.6 1023.6 -
22/03:30pm 19.1 15.9 11.9 63 4.0 S 20 28 11 15 1023.3 1023.3 -
22/03:00pm 20.4 17.2 11.9 58 4.7 S 20 26 11 14 1023.4 1023.4 0.0
22/02:30pm 20.2 16.6 10.6 54 5.2 S 20 26 11 14 1023.4 1023.4 -
22/02:00pm 20.2 16.6 10.0 52 5.5 S 19 26 10 14 1023.7 1023.7 -
22/01:30pm 20.2 17.0 11.1 56 5.0 SSE 19 24 10 13 1023.9 1023.9 -
22/01:00pm 20.1 17.2 11.1 56 4.9 SSE 17 20 9 11 1024.1 1024.1 -
22/12:30pm 20.4 17.6 11.3 56 5.0 SSE 17 22 9 12 1024.5 1024.5 -
22/12:00pm 20.4 17.8 10.8 54 5.2 SW 15 24 8 13 1024.7 1024.7 -
22/11:30am 20.0 16.9 9.0 49 5.8 SW 15 24 8 13 1025.3 1025.3 -
22/11:00am 20.1 16.4 10.2 53 5.3 SSW 20 24 11 13 1025.8 1025.8 -
22/10:30am 19.8 15.8 9.1 50 5.6 SW 20 28 11 15 1026.1 1026.1 0.0
22/10:00am 19.9 17.0 9.8 52 5.4 SW 15 22 8 12 1026.2 1026.2 0.0
22/09:30am 19.2 16.0 9.9 55 5.0 WSW 17 24 9 13 1026.2 1026.2 0.0
22/09:00am 18.5 16.2 10.3 59 4.4 WSW 13 20 7 11 1026.3 1026.3 0.0
22/08:30am 16.8 14.5 10.4 66 3.4 W 13 19 7 10 1026.1 1026.1 0.0
22/08:00am 16.7 14.4 10.5 67 3.3 WSW 13 19 7 10 1026.0 1026.0 0.0
22/07:30am 15.1 12.9 10.7 75 2.3 SW 13 15 7 8 1025.8 1025.8 0.0
22/07:00am 15.4 13.5 10.4 72 2.6 WSW 11 17 6 9 1025.4 1025.4 0.0
22/06:30am 15.3 13.0 10.5 73 2.5 WSW 13 17 7 9 1025.4 1025.4 0.0
22/06:00am 15.1 12.5 10.7 75 2.3 WSW 15 19 8 10 1025.0 1025.0 0.0
22/05:30am 15.4 13.1 10.6 73 2.5 SW 13 19 7 10 1024.7 1024.7 0.0
22/05:00am 15.2 12.6 10.6 74 2.4 WSW 15 20 8 11 1024.6 1024.6 0.0
22/04:30am 15.1 12.0 10.3 73 2.5 WSW 17 26 9 14 1024.4 1024.4 0.0
22/04:00am 15.3 12.2 10.3 72 2.6 WSW 17 22 9 12 1024.6 1024.6 0.0
22/03:30am 15.9 13.2 10.4 70 2.9 SW 15 20 8 11 1024.5 1024.5 0.0
22/03:00am 15.6 12.5 10.2 70 2.8 WSW 17 26 9 14 1024.5 1024.5 0.0
22/02:30am 15.1 12.0 10.3 73 2.5 WSW 17 22 9 12 1024.6 1024.6 0.0
22/02:00am 14.4 11.3 10.4 77 2.1 SW 17 20 9 11 1024.6 1024.6 0.0
22/01:30am 14.2 11.1 10.4 78 2.0 SW 17 22 9 12 1024.7 1024.7 0.0
22/01:00am 14.3 11.3 10.5 78 2.0 SW 17 26 9 14 1024.9 1024.9 0.0
22/12:30am 14.5 11.1 10.5 77 2.1 SW 19 24 10 13 1024.9 1024.9 0.0
22/12:00am 14.2 11.8 10.2 77 2.1 SW 13 17 7 9 1025.0 1025.0 0.0
 
Date/Time
EST
Temp
°C
App
Temp
°C
Dew
Point
°C
Rel
Hum
%
Delta-T
°C
Wind Press
QNH
hPa
Press
MSL
hPa
Rain since
9am
mm
Dir  Spd
km/h
Gust
km/h
Spd
kts
Gust
kts
21/11:30pm 14.9 12.6 10.3 74 2.4 WSW 13 19 7 10 1025.3 1025.3 0.0
21/11:00pm 15.0 12.4 10.6 75 2.3 W 15 20 8 11 1025.6 1025.6 0.0
21/10:30pm 15.2 12.4 11.2 77 2.1 WSW 17 22 9 12 1025.5 1025.5 0.0
21/10:00pm 15.3 12.9 11.3 77 2.1 WSW 15 19 8 10 1025.6 1025.6 0.0
21/09:30pm 15.5 12.7 11.3 76 2.3 WSW 17 26 9 14 1025.6 1025.6 0.0
21/09:00pm 15.3 12.9 11.3 77 2.1 SW 15 19 8 10 1025.4 1025.4 0.0
21/08:30pm 15.5 13.6 11.7 78 2.1 WSW 13 17 7 9 1025.2 1025.2 0.0
21/08:00pm 15.6 13.3 11.8 78 2.0 SW 15 19 8 10 1025.1 1025.1 0.0
21/07:30pm 15.5 13.6 11.9 79 2.0 WSW 13 19 7 10 1025.0 1025.0 0.0
21/07:00pm 15.8 13.6 12.2 79 2.0 WSW 15 20 8 11 1024.7 1024.7 0.0
21/06:30pm 17.6 13.3 12.1 70 3.0 SSW 26 33 14 18 1024.5 1024.5 0.0
21/06:00pm 18.1 13.9 12.5 70 3.1 SSW 26 35 14 19 1024.1 1024.1 0.0
21/05:30pm 18.5 14.0 12.7 69 3.2 S 28 39 15 21 1023.8 1023.8 0.0
21/05:00pm 18.8 14.5 13.2 70 3.2 S 28 35 15 19 1023.4 1023.4 0.0
21/04:30pm 19.2 15.6 13.2 68 3.4 S 24 32 13 17 1023.1 1023.1 0.0
21/04:00pm 19.8 17.1 13.0 65 3.8 S 19 26 10 14 1022.9 1022.9 0.0
21/03:30pm 20.0 17.1 12.3 61 4.3 S 19 24 10 13 1022.9 1022.9 0.0
21/03:00pm 20.2 16.2 11.9 59 4.6 S 24 30 13 16 1022.6 1022.6 0.0
21/02:30pm 20.1 17.0 12.3 61 4.4 S 20 28 11 15 1022.6 1022.6 0.0
21/02:00pm 21.2 16.9 12.1 56 5.1 S 26 33 14 18 1022.6 1022.6 0.0
21/01:30pm 20.6 16.5 11.5 56 5.0 S 24 30 13 16 1022.4 1022.4 0.0
21/01:00pm 20.8 16.3 11.4 55 5.2 S 26 32 14 17 1022.5 1022.5 0.0
21/12:30pm 20.6 15.9 10.7 53 5.4 SSW 26 33 14 18 1022.6 1022.6 0.0
21/12:00pm 20.2 16.8 11.4 57 4.8 SSW 20 30 11 16 1023.2 1023.2 0.0
21/11:30am 20.3 16.6 11.5 57 4.9 SW 22 32 12 17 1023.3 1023.3 0.0
21/11:00am 19.9 16.3 11.7 59 4.5 SW 22 33 12 18 1023.5 1023.5 0.0
21/10:30am 19.2 16.2 12.0 63 4.0 WSW 19 30 10 16 1023.8 1023.8 0.0
21/10:00am 18.5 14.7 11.3 63 3.9 SW 22 32 12 17 1024.0 1024.0 0.0
21/09:30am 18.5 14.4 11.6 64 3.8 SW 24 32 13 17 1023.9 1023.9 0.0
21/09:00am 17.6 14.4 11.4 67 3.4 WSW 19 30 10 16 1023.8 1023.8 0.0
21/08:30am 16.4 13.5 11.1 71 2.8 WSW 17 26 9 14 1023.3 1023.3 0.0
21/08:00am 16.1 13.7 11.3 73 2.6 WSW 15 19 8 10 1023.0 1023.0 0.0
21/07:30am 15.2 11.9 11.0 76 2.2 WSW 19 24 10 13 1022.8 1022.8 0.0
21/07:00am 14.8 12.7 11.0 78 2.0 SW 13 15 7 8 1022.7 1022.7 0.0
21/06:30am 15.2 13.1 11.0 76 2.2 WSW 13 17 7 9 1022.3 1022.3 0.0
21/06:00am 15.0 12.5 11.0 77 2.1 WSW 15 22 8 12 1022.3 1022.3 0.0
21/05:30am 15.0 12.9 11.2 78 2.0 WSW 13 17 7 9 1022.0 1022.0 0.0
21/05:00am 14.7 12.5 10.9 78 2.0 WSW 13 15 7 8 1021.6 1021.6 0.0
21/04:30am 14.8 12.7 11.0 78 2.0 WSW 13 17 7 9 1021.6 1021.6 0.0
21/04:00am 15.3 12.4 11.1 76 2.2 WSW 17 20 9 11 1021.7 1021.7 0.0
21/03:30am 16.0 13.6 11.4 74 2.5 WSW 15 24 8 13 1021.9 1021.9 0.0
21/03:00am 16.2 13.5 11.6 74 2.5 WSW 17 20 9 11 1022.0 1022.0 0.0
21/02:30am 15.9 13.5 11.5 75 2.4 WSW 15 19 8 10 1022.3 1022.3 0.0
21/02:00am 15.6 13.3 11.6 77 2.1 WSW 15 19 8 10 1022.5 1022.5 0.0
21/01:30am 15.4 13.1 11.6 78 2.0 WSW 15 19 8 10 1022.6 1022.6 0.0
21/01:00am 14.8 12.5 11.6 81 1.7 WSW 15 20 8 11 1022.8 1022.8 0.0
21/12:30am 14.7 11.9 11.5 81 1.7 WSW 17 22 9 12 1022.9 1022.9 0.0
21/12:00am 14.7 11.6 11.5 81 1.7 WSW 19 26 10 14 1023.1 1023.1 0.0
 
Date/Time
EST
Temp
°C
App
Temp
°C
Dew
Point
°C
Rel
Hum
%
Delta-T
°C
Wind Press
QNH
hPa
Press
MSL
hPa
Rain since
9am
mm
Dir  Spd
km/h
Gust
km/h
Spd
kts
Gust
kts
20/11:30pm 15.1 12.4 11.7 80 1.8 SW 17 24 9 13 1023.3 1023.3 0.0
20/11:00pm 15.5 12.4 11.7 78 2.0 WSW 19 28 10 15 1023.5 1023.5 0.0
20/10:30pm 15.9 13.2 11.7 76 2.3 WSW 17 20 9 11 1023.8 1023.8 0.0
20/10:00pm 15.7 13.0 11.7 77 2.2 WSW 17 20 9 11 1023.8 1023.8 0.0
20/09:30pm 16.0 13.0 11.8 76 2.3 WSW 19 26 10 14 1023.8 1023.8 0.0
20/09:00pm 15.7 12.4 11.7 77 2.2 WSW 20 28 11 15 1023.8 1023.8 0.0
20/08:30pm 15.6 12.9 11.6 77 2.2 SW 17 26 9 14 1024.0 1024.0 0.0
20/08:00pm 15.6 12.9 11.8 78 2.0 SW 17 22 9 12 1024.0 1024.0 0.0
20/07:30pm 15.7 12.6 11.7 77 2.2 WSW 19 26 10 14 1024.0 1024.0 0.0
20/07:00pm 15.7 12.6 11.7 77 2.2 WSW 19 24 10 13 1023.5 1023.5 0.0
20/06:30pm 15.6 12.9 11.8 78 2.1 SW 17 20 9 11 1023.3 1023.3 0.0
20/06:00pm 16.0 13.3 11.8 76 2.3 SW 17 22 9 12 1023.0 1023.0 0.0
20/05:30pm 17.0 13.8 11.9 72 2.8 SW 20 30 11 16 1022.9 1022.9 0.0
20/05:00pm 17.8 13.2 12.3 70 3.0 SSW 28 39 15 21 1022.8 1022.8 0.0
20/04:30pm 18.5 13.4 12.0 66 3.6 SSW 30 39 16 21 1022.9 1022.9 0.0
20/04:00pm 19.0 13.9 11.8 63 4.0 SSW 30 41 16 22 1022.9 1022.9 0.0
20/03:30pm 19.5 13.8 11.8 61 4.3 SSW 33 50 18 27 1022.8 1022.8 0.0
20/03:00pm 19.9 14.1 12.7 63 4.0 SSW 35 48 19 26 1022.5 1022.5 0.0
20/02:30pm 19.7 13.3 12.0 61 4.3 SSW 37 48 20 26 1022.4 1022.4 0.0
20/02:00pm 20.4 14.9 12.4 60 4.5 SSW 33 41 18 22 1022.6 1022.6 0.0
20/01:30pm 19.9 14.6 12.4 62 4.2 SSW 32 41 17 22 1022.8 1022.8 0.0
20/01:00pm 19.8 16.3 13.3 66 3.7 SW 24 33 13 18 1023.3 1023.3 0.0
20/12:30pm 19.0 13.8 12.7 67 3.5 SW 32 41 17 22 1023.5 1023.5 0.0
20/12:00pm 19.4 16.0 13.6 69 3.3 SW 24 32 13 17 1023.7 1023.7 0.0
20/11:30am 18.5 14.4 12.7 69 3.2 SW 26 33 14 18 1024.2 1024.2 0.0
20/11:00am 18.9 14.0 12.4 66 3.6 SW 30 41 16 22 1024.5 1024.5 0.0
20/10:30am 18.1 13.2 12.5 70 3.1 SW 30 37 16 20 1025.0 1025.0 0.0
20/10:00am 18.1 13.6 12.5 70 3.1 SW 28 35 15 19 1024.9 1024.9 0.0
20/09:30am 17.5 12.9 12.2 71 2.9 SW 28 37 15 20 1024.9 1024.9 0.0
20/09:00am 17.1 12.3 11.8 71 2.9 SW 28 37 15 20 1025.0 1025.0 6.6
20/08:30am 16.8 12.4 11.7 72 2.8 SW 26 33 14 18 1024.8 1024.8 6.6
20/08:00am 16.2 12.2 11.8 75 2.4 SW 24 32 13 17 1024.8 1024.8 6.6
20/07:30am 16.0 11.9 11.6 75 2.4 SW 24 30 13 16 1024.6 1024.6 6.6
20/07:00am 15.8 11.7 11.4 75 2.4 SW 24 32 13 17 1024.5 1024.5 6.6
20/06:30am 15.5 11.4 11.3 76 2.3 SW 24 32 13 17 1024.3 1024.3 6.6
20/06:00am 15.6 11.5 11.4 76 2.2 SW 24 32 13 17 1024.1 1024.1 6.6
20/05:30am 15.5 11.3 11.1 75 2.3 SW 24 32 13 17 1023.8 1023.8 6.6
20/05:00am 15.6 11.8 11.2 75 2.3 WSW 22 28 12 15 1023.7 1023.7 6.6
20/04:30am 15.7 12.3 11.3 75 2.4 SW 20 26 11 14 1024.0 1024.0 6.6
20/04:00am 16.0 11.6 11.6 75 2.4 SW 26 32 14 17 1023.9 1023.9 6.6
20/03:30am 16.0 11.9 11.6 75 2.4 SW 24 32 13 17 1024.0 1024.0 6.6
20/03:00am 16.1 12.1 11.9 76 2.3 SW 24 32 13 17 1024.2 1024.2 6.6
20/02:30am 16.0 12.4 11.8 76 2.3 SW 22 28 12 15 1024.3 1024.3 6.6
20/02:00am 15.8 11.8 11.8 77 2.2 SW 24 30 13 16 1024.4 1024.4 6.6
20/01:30am 15.8 12.2 11.8 77 2.2 SW 22 28 12 15 1024.7 1024.7 6.6
20/01:00am 15.8 11.4 11.8 77 2.2 SW 26 32 14 17 1024.8 1024.8 6.6
20/12:30am 15.9 11.9 11.9 77 2.2 SW 24 33 13 18 1024.7 1024.7 6.6
20/12:00am 15.9 11.9 11.9 77 2.2 SW 24 32 13 17 1025.0 1025.0 6.6
 
Date/Time
EST
Temp
°C
App
Temp
°C
Dew
Point
°C
Rel
Hum
%
Delta-T
°C
Wind Press
QNH
hPa
Press
MSL
hPa
Rain since
9am
mm
Dir  Spd
km/h
Gust
km/h
Spd
kts
Gust
kts
19/11:30pm 15.5 11.2 11.9 79 2.0 SW 26 32 14 17 1025.0 1025.0 6.6
19/11:00pm 15.4 11.5 12.2 81 1.7 SW 24 32 13 17 1025.3 1025.3 6.6
19/10:30pm 15.5 11.3 12.4 82 1.7 SW 26 35 14 19 1025.4 1025.4 6.6

Other Formats:

Comma delimited format used in spreadsheet applications
http://www.bom.gov.au/fwo/IDN60801/IDN60801.95729.axf

JavaScript Object Notation format (JSON) in row-major order
http://www.bom.gov.au/fwo/IDN60801/IDN60801.95729.json